sensor_id;sensor_type;location;lat;lon;timestamp;pressure;altitude;pressure_sealevel;temperature;humidity
56182;BME280;51963;46.052;14.544;2023-06-22T00:01:21;98514.31;;;21.09;100.00
56182;BME280;51963;46.052;14.544;2023-06-22T00:03:48;98512.94;;;21.07;100.00
56182;BME280;51963;46.052;14.544;2023-06-22T00:06:16;98503.03;;;21.07;100.00
56182;BME280;51963;46.052;14.544;2023-06-22T00:08:42;98501.63;;;21.05;100.00
56182;BME280;51963;46.052;14.544;2023-06-22T00:11:08;98515.06;;;21.05;100.00
56182;BME280;51963;46.052;14.544;2023-06-22T00:13:34;98506.22;;;21.04;100.00
56182;BME280;51963;46.052;14.544;2023-06-22T00:15:59;98510.81;;;21.09;100.00
56182;BME280;51963;46.052;14.544;2023-06-22T00:18:25;98510.00;;;21.08;100.00
56182;BME280;51963;46.052;14.544;2023-06-22T00:20:54;98506.94;;;21.00;100.00
56182;BME280;51963;46.052;14.544;2023-06-22T00:23:23;98519.28;;;20.95;100.00
56182;BME280;51963;46.052;14.544;2023-06-22T00:25:49;98507.34;;;20.86;100.00
56182;BME280;51963;46.052;14.544;2023-06-22T00:28:18;98517.03;;;20.87;100.00
56182;BME280;51963;46.052;14.544;2023-06-22T00:30:46;98525.09;;;20.87;100.00
56182;BME280;51963;46.052;14.544;2023-06-22T00:33:11;98534.59;;;20.95;100.00
56182;BME280;51963;46.052;14.544;2023-06-22T00:35:40;98546.66;;;20.92;100.00
56182;BME280;51963;46.052;14.544;2023-06-22T00:38:11;98540.72;;;20.90;100.00
56182;BME280;51963;46.052;14.544;2023-06-22T00:40:37;98520.63;;;20.76;100.00
56182;BME280;51963;46.052;14.544;2023-06-22T00:43:05;98527.22;;;20.85;100.00
56182;BME280;51963;46.052;14.544;2023-06-22T00:45:31;98524.25;;;20.81;100.00
56182;BME280;51963;46.052;14.544;2023-06-22T00:47:59;98509.09;;;20.75;100.00
56182;BME280;51963;46.052;14.544;2023-06-22T00:50:32;98516.69;;;20.78;100.00
56182;BME280;51963;46.052;14.544;2023-06-22T00:53:04;98498.34;;;20.75;100.00
56182;BME280;51963;46.052;14.544;2023-06-22T00:55:37;98498.03;;;20.72;100.00
56182;BME280;51963;46.052;14.544;2023-06-22T00:58:06;98506.09;;;20.72;100.00
56182;BME280;51963;46.052;14.544;2023-06-22T01:00:33;98495.66;;;20.75;100.00
56182;BME280;51963;46.052;14.544;2023-06-22T01:02:59;98505.78;;;20.68;100.00
56182;BME280;51963;46.052;14.544;2023-06-22T01:05:27;98488.22;;;20.60;100.00
56182;BME280;51963;46.052;14.544;2023-06-22T01:11:39;98501.28;;;20.74;100.00
56182;BME280;51963;46.052;14.544;2023-06-22T01:16:33;98493.88;;;21.08;100.00
56182;BME280;51963;46.052;14.544;2023-06-22T01:19:27;98488.69;;;21.02;100.00
56182;BME280;51963;46.052;14.544;2023-06-22T01:21:56;98486.88;;;21.07;100.00
56182;BME280;51963;46.052;14.544;2023-06-22T01:24:34;98480.47;;;21.41;100.00
56182;BME280;51963;46.052;14.544;2023-06-22T01:29:56;98481.28;;;21.42;100.00
56182;BME280;51963;46.052;14.544;2023-06-22T01:32:35;98478.03;;;21.39;100.00
56182;BME280;51963;46.052;14.544;2023-06-22T01:35:05;98438.00;;;21.43;100.00
56182;BME280;51963;46.052;14.544;2023-06-22T01:37:32;98477.00;;;21.73;100.00
56182;BME280;51963;46.052;14.544;2023-06-22T01:40:02;98486.41;;;21.43;100.00
56182;BME280;51963;46.052;14.544;2023-06-22T01:42:31;98477.75;;;21.36;100.00
56182;BME280;51963;46.052;14.544;2023-06-22T01:44:59;98471.66;;;21.18;100.00
56182;BME280;51963;46.052;14.544;2023-06-22T01:47:26;98471.56;;;21.08;100.00
56182;BME280;51963;46.052;14.544;2023-06-22T01:49:53;98475.81;;;21.04;100.00
56182;BME280;51963;46.052;14.544;2023-06-22T01:52:27;98464.41;;;20.91;100.00
56182;BME280;51963;46.052;14.544;2023-06-22T01:54:56;98475.53;;;21.00;100.00
56182;BME280;51963;46.052;14.544;2023-06-22T01:57:23;98456.25;;;20.81;100.00
56182;BME280;51963;46.052;14.544;2023-06-22T02:00:07;98481.66;;;20.95;100.00
56182;BME280;51963;46.052;14.544;2023-06-22T02:03:11;98472.91;;;20.83;100.00
56182;BME280;51963;46.052;14.544;2023-06-22T02:05:50;98477.59;;;20.71;100.00
56182;BME280;51963;46.052;14.544;2023-06-22T02:08:20;98474.63;;;20.67;100.00
56182;BME280;51963;46.052;14.544;2023-06-22T02:10:51;98483.34;;;20.57;100.00
56182;BME280;51963;46.052;14.544;2023-06-22T02:13:24;98463.94;;;20.28;100.00
56182;BME280;51963;46.052;14.544;2023-06-22T02:15:51;98476.16;;;20.18;100.00
56182;BME280;51963;46.052;14.544;2023-06-22T02:18:17;98477.81;;;20.02;100.00
56182;BME280;51963;46.052;14.544;2023-06-22T02:20:43;98479.31;;;19.93;100.00
56182;BME280;51963;46.052;14.544;2023-06-22T02:23:09;98479.44;;;19.86;100.00
56182;BME280;51963;46.052;14.544;2023-06-22T02:25:35;98436.38;;;19.59;100.00
56182;BME280;51963;46.052;14.544;2023-06-22T02:28:02;98462.38;;;19.75;100.00
56182;BME280;51963;46.052;14.544;2023-06-22T02:30:31;98447.94;;;19.59;100.00
56182;BME280;51963;46.052;14.544;2023-06-22T02:32:58;98458.50;;;19.66;100.00
56182;BME280;51963;46.052;14.544;2023-06-22T02:35:32;98461.75;;;19.68;100.00
56182;BME280;51963;46.052;14.544;2023-06-22T02:38:02;98452.91;;;19.68;100.00
56182;BME280;51963;46.052;14.544;2023-06-22T02:40:29;98452.97;;;19.73;100.00
56182;BME280;51963;46.052;14.544;2023-06-22T02:43:00;98450.38;;;19.78;100.00
56182;BME280;51963;46.052;14.544;2023-06-22T02:45:29;98438.16;;;19.70;100.00
56182;BME280;51963;46.052;14.544;2023-06-22T02:47:55;98461.25;;;19.71;100.00
56182;BME280;51963;46.052;14.544;2023-06-22T02:50:24;98450.44;;;19.66;100.00
56182;BME280;51963;46.052;14.544;2023-06-22T02:52:51;98446.78;;;19.72;100.00
56182;BME280;51963;46.052;14.544;2023-06-22T02:55:19;98428.34;;;19.59;100.00
56182;BME280;51963;46.052;14.544;2023-06-22T02:57:55;98435.25;;;19.55;100.00
56182;BME280;51963;46.052;14.544;2023-06-22T03:00:23;98464.59;;;19.61;100.00
56182;BME280;51963;46.052;14.544;2023-06-22T03:02:59;98462.38;;;19.75;100.00
56182;BME280;51963;46.052;14.544;2023-06-22T03:05:24;98466.63;;;19.71;100.00
56182;BME280;51963;46.052;14.544;2023-06-22T03:07:54;98457.03;;;19.75;100.00
56182;BME280;51963;46.052;14.544;2023-06-22T03:10:21;98457.78;;;19.71;100.00
56182;BME280;51963;46.052;14.544;2023-06-22T03:12:46;98450.38;;;19.61;100.00
56182;BME280;51963;46.052;14.544;2023-06-22T03:15:12;98459.66;;;19.53;100.00
56182;BME280;51963;46.052;14.544;2023-06-22T03:17:44;98462.56;;;19.52;100.00
56182;BME280;51963;46.052;14.544;2023-06-22T03:20:10;98436.91;;;19.39;100.00
56182;BME280;51963;46.052;14.544;2023-06-22T03:22:44;98455.81;;;19.49;100.00
56182;BME280;51963;46.052;14.544;2023-06-22T03:25:10;98460.28;;;19.43;100.00
56182;BME280;51963;46.052;14.544;2023-06-22T03:27:41;98461.91;;;19.44;100.00
56182;BME280;51963;46.052;14.544;2023-06-22T03:30:09;98459.78;;;19.46;100.00
56182;BME280;51963;46.052;14.544;2023-06-22T03:32:35;98459.06;;;19.51;100.00
56182;BME280;51963;46.052;14.544;2023-06-22T03:35:04;98468.00;;;19.57;100.00
56182;BME280;51963;46.052;14.544;2023-06-22T03:37:33;98471.25;;;19.59;100.00
56182;BME280;51963;46.052;14.544;2023-06-22T03:40:00;98458.34;;;19.56;100.00
56182;BME280;51963;46.052;14.544;2023-06-22T03:42:29;98477.81;;;19.68;100.00
56182;BME280;51963;46.052;14.544;2023-06-22T03:44:55;98470.19;;;19.77;100.00
56182;BME280;51963;46.052;14.544;2023-06-22T03:47:21;98474.25;;;19.79;100.00
56182;BME280;51963;46.052;14.544;2023-06-22T03:49:46;98473.38;;;19.74;100.00
56182;BME280;51963;46.052;14.544;2023-06-22T03:52:12;98481.56;;;19.84;100.00
56182;BME280;51963;46.052;14.544;2023-06-22T03:54:38;98460.09;;;20.01;100.00
56182;BME280;51963;46.052;14.544;2023-06-22T03:57:04;98475.41;;;20.23;100.00
56182;BME280;51963;46.052;14.544;2023-06-22T03:59:33;98481.59;;;20.23;100.00
56182;BME280;51963;46.052;14.544;2023-06-22T04:01:59;98480.66;;;20.13;100.00
56182;BME280;51963;46.052;14.544;2023-06-22T04:04:27;98484.47;;;20.17;100.00
56182;BME280;51963;46.052;14.544;2023-06-22T04:06:53;98466.44;;;19.95;100.00
56182;BME280;51963;46.052;14.544;2023-06-22T04:09:21;98479.88;;;19.95;100.00
56182;BME280;51963;46.052;14.544;2023-06-22T04:11:48;98474.88;;;19.87;100.00
56182;BME280;51963;46.052;14.544;2023-06-22T04:14:16;98477.34;;;19.71;100.00
56182;BME280;51963;46.052;14.544;2023-06-22T04:16:42;98490.84;;;19.76;100.00
56182;BME280;51963;46.052;14.544;2023-06-22T04:19:10;98482.94;;;19.87;100.00
56182;BME280;51963;46.052;14.544;2023-06-22T04:21:45;98474.44;;;19.90;100.00
56182;BME280;51963;46.052;14.544;2023-06-22T04:24:11;98482.53;;;19.95;100.00
56182;BME280;51963;46.052;14.544;2023-06-22T04:26:39;98492.16;;;19.91;100.00
56182;BME280;51963;46.052;14.544;2023-06-22T04:29:07;98489.03;;;19.99;100.00
56182;BME280;51963;46.052;14.544;2023-06-22T04:31:36;98477.59;;;20.04;100.00
56182;BME280;51963;46.052;14.544;2023-06-22T04:34:06;98475.81;;;19.92;100.00
56182;BME280;51963;46.052;14.544;2023-06-22T04:36:37;98486.06;;;19.96;100.00
56182;BME280;51963;46.052;14.544;2023-06-22T04:39:05;98482.31;;;19.97;100.00
56182;BME280;51963;46.052;14.544;2023-06-22T04:41:31;98477.19;;;19.95;100.00
56182;BME280;51963;46.052;14.544;2023-06-22T04:44:14;98485.88;;;20.02;100.00
56182;BME280;51963;46.052;14.544;2023-06-22T04:46:56;98483.25;;;20.07;100.00
56182;BME280;51963;46.052;14.544;2023-06-22T04:49:31;98480.34;;;20.09;100.00
56182;BME280;51963;46.052;14.544;2023-06-22T04:52:09;98477.97;;;20.13;100.00
56182;BME280;51963;46.052;14.544;2023-06-22T04:54:37;98483.97;;;20.20;100.00
56182;BME280;51963;46.052;14.544;2023-06-22T04:57:05;98480.84;;;20.28;100.00
56182;BME280;51963;46.052;14.544;2023-06-22T04:59:36;98471.56;;;20.36;100.00
56182;BME280;51963;46.052;14.544;2023-06-22T05:02:04;98487.09;;;20.56;100.00
56182;BME280;51963;46.052;14.544;2023-06-22T05:04:31;98499.09;;;20.71;100.00
56182;BME280;51963;46.052;14.544;2023-06-22T05:06:58;98497.88;;;20.78;100.00
56182;BME280;51963;46.052;14.544;2023-06-22T05:09:26;98502.75;;;21.09;100.00
56182;BME280;51963;46.052;14.544;2023-06-22T05:11:52;98489.91;;;21.16;100.00
56182;BME280;51963;46.052;14.544;2023-06-22T05:14:18;98499.69;;;21.22;100.00
56182;BME280;51963;46.052;14.544;2023-06-22T05:16:45;98504.00;;;21.23;100.00
56182;BME280;51963;46.052;14.544;2023-06-22T05:19:11;98505.66;;;21.30;100.00
56182;BME280;51963;46.052;14.544;2023-06-22T05:21:40;98502.56;;;21.43;100.00
56182;BME280;51963;46.052;14.544;2023-06-22T05:24:06;98491.00;;;21.48;100.00
56182;BME280;51963;46.052;14.544;2023-06-22T05:26:33;98501.63;;;21.60;100.00
56182;BME280;51963;46.052;14.544;2023-06-22T05:29:02;98497.69;;;21.73;100.00
56182;BME280;51963;46.052;14.544;2023-06-22T05:31:30;98495.34;;;21.81;100.00
56182;BME280;51963;46.052;14.544;2023-06-22T05:33:59;98500.25;;;21.90;100.00
56182;BME280;51963;46.052;14.544;2023-06-22T05:36:28;98500.28;;;21.95;100.00
56182;BME280;51963;46.052;14.544;2023-06-22T05:38:56;98498.69;;;21.99;100.00
56182;BME280;51963;46.052;14.544;2023-06-22T05:41:22;98507.47;;;22.27;100.00
56182;BME280;51963;46.052;14.544;2023-06-22T05:43:50;98502.13;;;22.32;100.00
56182;BME280;51963;46.052;14.544;2023-06-22T05:46:16;98500.00;;;22.39;100.00
56182;BME280;51963;46.052;14.544;2023-06-22T05:48:42;98495.69;;;22.44;100.00
56182;BME280;51963;46.052;14.544;2023-06-22T05:51:08;98497.91;;;22.52;100.00
56182;BME280;51963;46.052;14.544;2023-06-22T05:53:33;98492.00;;;22.55;100.00
56182;BME280;51963;46.052;14.544;2023-06-22T05:56:02;98491.50;;;22.68;100.00
56182;BME280;51963;46.052;14.544;2023-06-22T05:58:27;98491.53;;;22.74;100.00
56182;BME280;51963;46.052;14.544;2023-06-22T06:00:53;98502.34;;;22.89;99.40
56182;BME280;51963;46.052;14.544;2023-06-22T06:03:19;98499.94;;;22.98;99.85
56182;BME280;51963;46.052;14.544;2023-06-22T06:05:45;98503.19;;;23.05;100.00
56182;BME280;51963;46.052;14.544;2023-06-22T06:08:11;98498.63;;;23.16;99.78
56182;BME280;51963;46.052;14.544;2023-06-22T06:10:37;98496.53;;;23.28;99.31
56182;BME280;51963;46.052;14.544;2023-06-22T06:13:06;98494.91;;;23.43;98.83
56182;BME280;51963;46.052;14.544;2023-06-22T06:15:35;98499.50;;;23.58;97.91
56182;BME280;51963;46.052;14.544;2023-06-22T06:18:01;98496.00;;;23.68;96.84
56182;BME280;51963;46.052;14.544;2023-06-22T06:20:31;98501.66;;;23.87;95.28
56182;BME280;51963;46.052;14.544;2023-06-22T06:22:57;98505.97;;;23.93;93.91
56182;BME280;51963;46.052;14.544;2023-06-22T06:25:31;98507.03;;;23.56;96.01
56182;BME280;51963;46.052;14.544;2023-06-22T06:27:59;98503.00;;;23.53;97.34
56182;BME280;51963;46.052;14.544;2023-06-22T06:30:27;98487.91;;;23.63;95.89
56182;BME280;51963;46.052;14.544;2023-06-22T06:32:53;98497.59;;;23.69;94.95
56182;BME280;51963;46.052;14.544;2023-06-22T06:35:19;98492.22;;;23.74;94.57
56182;BME280;51963;46.052;14.544;2023-06-22T06:37:51;98483.56;;;23.77;93.79
56182;BME280;51963;46.052;14.544;2023-06-22T06:40:18;98476.53;;;23.86;93.64
56182;BME280;51963;46.052;14.544;2023-06-22T06:42:47;98474.63;;;23.82;94.20
56182;BME280;51963;46.052;14.544;2023-06-22T06:45:18;98477.06;;;24.04;93.80
56182;BME280;51963;46.052;14.544;2023-06-22T06:47:45;98482.38;;;24.35;91.43
56182;BME280;51963;46.052;14.544;2023-06-22T06:50:14;98476.69;;;24.42;91.39
56182;BME280;51963;46.052;14.544;2023-06-22T06:52:41;98482.88;;;24.42;92.59
56182;BME280;51963;46.052;14.544;2023-06-22T06:55:10;98475.81;;;24.52;89.74
56182;BME280;51963;46.052;14.544;2023-06-22T06:57:43;98476.28;;;24.69;88.38
56182;BME280;51963;46.052;14.544;2023-06-22T07:00:11;98481.66;;;24.80;89.95
56182;BME280;51963;46.052;14.544;2023-06-22T07:02:40;98482.00;;;25.13;87.52
56182;BME280;51963;46.052;14.544;2023-06-22T07:05:06;98479.47;;;25.27;85.76
56182;BME280;51963;46.052;14.544;2023-06-22T07:07:32;98476.81;;;25.56;84.74
56182;BME280;51963;46.052;14.544;2023-06-22T07:09:58;98480.78;;;25.69;83.19
56182;BME280;51963;46.052;14.544;2023-06-22T07:12:25;98475.22;;;26.09;83.30
56182;BME280;51963;46.052;14.544;2023-06-22T07:15:01;98462.72;;;26.62;80.05
56182;BME280;51963;46.052;14.544;2023-06-22T07:17:27;98461.94;;;26.37;82.18
56182;BME280;51963;46.052;14.544;2023-06-22T07:19:52;98454.09;;;26.60;77.95
56182;BME280;51963;46.052;14.544;2023-06-22T07:22:18;98466.75;;;26.64;78.16
56182;BME280;51963;46.052;14.544;2023-06-22T07:24:44;98463.00;;;26.85;78.09
56182;BME280;51963;46.052;14.544;2023-06-22T07:27:09;98462.66;;;26.67;79.22
56182;BME280;51963;46.052;14.544;2023-06-22T07:29:38;98444.56;;;26.82;77.28
56182;BME280;51963;46.052;14.544;2023-06-22T07:32:06;98453.81;;;26.80;78.44
56182;BME280;51963;46.052;14.544;2023-06-22T07:34:32;98427.06;;;26.49;78.88
56182;BME280;51963;46.052;14.544;2023-06-22T07:36:59;98448.59;;;26.84;78.17
56182;BME280;51963;46.052;14.544;2023-06-22T07:39:28;98455.31;;;26.68;78.79
56182;BME280;51963;46.052;14.544;2023-06-22T07:41:54;98456.31;;;26.96;76.56
56182;BME280;51963;46.052;14.544;2023-06-22T07:44:19;98432.00;;;27.24;76.37
56182;BME280;51963;46.052;14.544;2023-06-22T07:46:45;98451.00;;;27.24;75.87
56182;BME280;51963;46.052;14.544;2023-06-22T07:49:11;98438.09;;;28.10;72.25
56182;BME280;51963;46.052;14.544;2023-06-22T07:51:37;98449.59;;;28.35;70.57
56182;BME280;51963;46.052;14.544;2023-06-22T07:54:03;98435.66;;;28.08;71.08
56182;BME280;51963;46.052;14.544;2023-06-22T07:56:28;98443.16;;;28.31;71.84
56182;BME280;51963;46.052;14.544;2023-06-22T07:58:54;98442.28;;;27.74;71.95
56182;BME280;51963;46.052;14.544;2023-06-22T08:01:20;98434.06;;;27.93;71.51
56182;BME280;51963;46.052;14.544;2023-06-22T08:03:49;98445.84;;;27.75;70.90
56182;BME280;51963;46.052;14.544;2023-06-22T08:06:17;98429.06;;;28.65;67.02
56182;BME280;51963;46.052;14.544;2023-06-22T08:08:45;98452.59;;;28.98;67.09
56182;BME280;51963;46.052;14.544;2023-06-22T08:11:13;98426.03;;;28.44;66.79
56182;BME280;51963;46.052;14.544;2023-06-22T08:13:39;98452.03;;;29.10;65.35
56182;BME280;51963;46.052;14.544;2023-06-22T08:16:05;98439.00;;;28.98;64.60
56182;BME280;51963;46.052;14.544;2023-06-22T08:18:30;98445.47;;;29.11;64.73
56182;BME280;51963;46.052;14.544;2023-06-22T08:20:56;98450.53;;;29.40;66.33
56182;BME280;51963;46.052;14.544;2023-06-22T08:23:24;98453.47;;;29.07;66.26
56182;BME280;51963;46.052;14.544;2023-06-22T08:25:50;98448.06;;;29.93;63.25
56182;BME280;51963;46.052;14.544;2023-06-22T08:28:16;98446.69;;;29.41;65.11
56182;BME280;51963;46.052;14.544;2023-06-22T08:30:42;98449.16;;;29.52;65.74
56182;BME280;51963;46.052;14.544;2023-06-22T08:33:10;98422.59;;;29.35;64.11
56182;BME280;51963;46.052;14.544;2023-06-22T08:35:39;98439.81;;;29.21;63.94
56182;BME280;51963;46.052;14.544;2023-06-22T08:38:04;98433.41;;;30.12;61.70
56182;BME280;51963;46.052;14.544;2023-06-22T08:40:35;98421.72;;;30.20;60.56
56182;BME280;51963;46.052;14.544;2023-06-22T08:43:03;98426.00;;;30.62;59.09
56182;BME280;51963;46.052;14.544;2023-06-22T08:45:29;98430.66;;;30.79;59.54
56182;BME280;51963;46.052;14.544;2023-06-22T08:47:59;98430.19;;;30.77;57.85
56182;BME280;51963;46.052;14.544;2023-06-22T08:50:25;98424.72;;;31.21;56.51
56182;BME280;51963;46.052;14.544;2023-06-22T08:52:51;98412.66;;;31.30;54.33
56182;BME280;51963;46.052;14.544;2023-06-22T08:55:19;98426.34;;;31.69;52.76
56182;BME280;51963;46.052;14.544;2023-06-22T08:57:45;98410.72;;;31.13;55.73
56182;BME280;51963;46.052;14.544;2023-06-22T09:00:13;98418.47;;;31.77;55.11
56182;BME280;51963;46.052;14.544;2023-06-22T09:02:44;98426.00;;;31.88;52.63
56182;BME280;51963;46.052;14.544;2023-06-22T09:05:09;98419.94;;;32.43;50.75
56182;BME280;51963;46.052;14.544;2023-06-22T09:07:35;98405.69;;;31.98;53.48
56182;BME280;51963;46.052;14.544;2023-06-22T09:10:01;98399.41;;;31.98;54.01
56182;BME280;51963;46.052;14.544;2023-06-22T09:12:33;98399.53;;;32.61;50.75
56182;BME280;51963;46.052;14.544;2023-06-22T09:15:02;98399.47;;;32.91;48.62
56182;BME280;51963;46.052;14.544;2023-06-22T09:17:30;98399.19;;;32.42;50.41
56182;BME280;51963;46.052;14.544;2023-06-22T09:19:56;98385.16;;;32.65;49.20
56182;BME280;51963;46.052;14.544;2023-06-22T09:22:21;98391.91;;;32.88;52.07
56182;BME280;51963;46.052;14.544;2023-06-22T09:24:47;98394.88;;;33.63;46.72
56182;BME280;51963;46.052;14.544;2023-06-22T09:27:15;98399.53;;;33.62;46.17
56182;BME280;51963;46.052;14.544;2023-06-22T09:29:41;98409.72;;;33.62;50.05
56182;BME280;51963;46.052;14.544;2023-06-22T09:32:07;98395.13;;;33.36;47.42
56182;BME280;51963;46.052;14.544;2023-06-22T09:34:35;98394.16;;;33.54;47.60
56182;BME280;51963;46.052;14.544;2023-06-22T09:37:01;98391.19;;;33.46;47.49
56182;BME280;51963;46.052;14.544;2023-06-22T09:39:27;98376.16;;;32.85;48.90
56182;BME280;51963;46.052;14.544;2023-06-22T09:41:53;98391.16;;;33.00;49.64
56182;BME280;51963;46.052;14.544;2023-06-22T09:44:18;98388.34;;;33.09;49.52
56182;BME280;51963;46.052;14.544;2023-06-22T09:46:44;98372.00;;;32.79;49.58
56182;BME280;51963;46.052;14.544;2023-06-22T09:49:10;98380.16;;;33.21;50.93
56182;BME280;51963;46.052;14.544;2023-06-22T09:51:36;98386.38;;;33.43;51.87
56182;BME280;51963;46.052;14.544;2023-06-22T09:54:01;98370.34;;;32.87;53.41
56182;BME280;51963;46.052;14.544;2023-06-22T09:56:27;98371.41;;;32.73;53.19
56182;BME280;51963;46.052;14.544;2023-06-22T09:58:54;98369.28;;;32.37;55.53
56182;BME280;51963;46.052;14.544;2023-06-22T10:01:20;98364.22;;;32.47;53.35
56182;BME280;51963;46.052;14.544;2023-06-22T10:03:53;98370.16;;;32.71;53.20
56182;BME280;51963;46.052;14.544;2023-06-22T10:06:22;98370.63;;;33.40;51.21
56182;BME280;51963;46.052;14.544;2023-06-22T10:08:50;98374.47;;;33.39;52.35
56182;BME280;51963;46.052;14.544;2023-06-22T10:11:15;98348.44;;;33.33;52.53
56182;BME280;51963;46.052;14.544;2023-06-22T10:13:41;98358.22;;;32.54;53.81
56182;BME280;51963;46.052;14.544;2023-06-22T10:16:07;98367.91;;;33.53;51.37
56182;BME280;51963;46.052;14.544;2023-06-22T10:18:32;98378.13;;;33.31;50.89
56182;BME280;51963;46.052;14.544;2023-06-22T10:21:01;98369.63;;;33.11;50.14
56182;BME280;51963;46.052;14.544;2023-06-22T10:23:27;98360.38;;;33.16;51.17
56182;BME280;51963;46.052;14.544;2023-06-22T10:25:55;98352.78;;;33.34;52.05
56182;BME280;51963;46.052;14.544;2023-06-22T10:28:23;98367.22;;;33.43;52.02
56182;BME280;51963;46.052;14.544;2023-06-22T10:30:49;98363.91;;;33.87;49.71
56182;BME280;51963;46.052;14.544;2023-06-22T10:33:14;98366.53;;;33.84;48.61
56182;BME280;51963;46.052;14.544;2023-06-22T10:35:40;98362.28;;;34.23;48.83
56182;BME280;51963;46.052;14.544;2023-06-22T10:38:06;98369.97;;;34.18;47.81
56182;BME280;51963;46.052;14.544;2023-06-22T10:40:34;98360.44;;;35.25;45.33
56182;BME280;51963;46.052;14.544;2023-06-22T10:43:03;98359.66;;;34.96;47.63
56182;BME280;51963;46.052;14.544;2023-06-22T10:45:29;98345.72;;;35.18;46.88
56182;BME280;51963;46.052;14.544;2023-06-22T10:47:55;98345.38;;;35.35;45.08
56182;BME280;51963;46.052;14.544;2023-06-22T10:50:27;98344.13;;;35.81;45.02
56182;BME280;51963;46.052;14.544;2023-06-22T10:52:54;98353.69;;;37.21;38.68
56182;BME280;51963;46.052;14.544;2023-06-22T10:55:19;98348.19;;;37.21;40.69
56182;BME280;51963;46.052;14.544;2023-06-22T10:57:45;98334.56;;;37.09;43.55
56182;BME280;51963;46.052;14.544;2023-06-22T11:00:13;98337.47;;;36.18;41.97
56182;BME280;51963;46.052;14.544;2023-06-22T11:02:39;98341.63;;;37.53;39.89
56182;BME280;51963;46.052;14.544;2023-06-22T11:05:05;98329.78;;;37.06;39.27
56182;BME280;51963;46.052;14.544;2023-06-22T11:07:31;98337.47;;;37.63;42.03
56182;BME280;51963;46.052;14.544;2023-06-22T11:10:00;98328.94;;;36.82;42.98
56182;BME280;51963;46.052;14.544;2023-06-22T11:12:26;98331.63;;;37.68;39.33
56182;BME280;51963;46.052;14.544;2023-06-22T11:14:51;98321.78;;;38.93;36.07
56182;BME280;51963;46.052;14.544;2023-06-22T11:17:18;98334.25;;;38.41;37.24
56182;BME280;51963;46.052;14.544;2023-06-22T11:19:44;98322.34;;;38.07;39.71
56182;BME280;51963;46.052;14.544;2023-06-22T11:22:10;98317.69;;;38.41;39.43
56182;BME280;51963;46.052;14.544;2023-06-22T11:24:36;98317.38;;;38.20;40.20
56182;BME280;51963;46.052;14.544;2023-06-22T11:27:02;98308.47;;;38.64;39.77
56182;BME280;51963;46.052;14.544;2023-06-22T11:29:28;98306.94;;;38.06;37.98
56182;BME280;51963;46.052;14.544;2023-06-22T11:31:53;98309.94;;;37.43;39.76
56182;BME280;51963;46.052;14.544;2023-06-22T11:34:19;98304.94;;;38.33;41.32
56182;BME280;51963;46.052;14.544;2023-06-22T11:36:45;98306.28;;;38.16;40.19
56182;BME280;51963;46.052;14.544;2023-06-22T11:39:11;98294.84;;;39.27;37.06
56182;BME280;51963;46.052;14.544;2023-06-22T11:41:39;98297.34;;;39.40;34.89
56182;BME280;51963;46.052;14.544;2023-06-22T11:44:05;98289.44;;;38.97;36.21
56182;BME280;51963;46.052;14.544;2023-06-22T11:46:32;98296.50;;;37.92;39.98
56182;BME280;51963;46.052;14.544;2023-06-22T11:48:58;98291.00;;;39.95;35.20
56182;BME280;51963;46.052;14.544;2023-06-22T11:51:26;98271.94;;;37.83;40.07
56182;BME280;51963;46.052;14.544;2023-06-22T11:53:59;98293.78;;;39.39;37.12
56182;BME280;51963;46.052;14.544;2023-06-22T11:56:27;98289.28;;;40.65;35.87
56182;BME280;51963;46.052;14.544;2023-06-22T11:58:53;98289.25;;;39.20;36.01
56182;BME280;51963;46.052;14.544;2023-06-22T12:01:19;98288.38;;;39.57;36.52
56182;BME280;51963;46.052;14.544;2023-06-22T12:03:45;98282.41;;;39.52;37.86
56182;BME280;51963;46.052;14.544;2023-06-22T12:06:11;98273.03;;;39.15;37.10
56182;BME280;51963;46.052;14.544;2023-06-22T12:08:37;98262.63;;;39.46;37.21
56182;BME280;51963;46.052;14.544;2023-06-22T12:11:03;98266.69;;;39.70;36.48
56182;BME280;51963;46.052;14.544;2023-06-22T12:13:28;98267.75;;;40.22;35.39
56182;BME280;51963;46.052;14.544;2023-06-22T12:15:56;98269.81;;;40.28;34.63
56182;BME280;51963;46.052;14.544;2023-06-22T12:18:25;98259.94;;;40.45;34.33
56182;BME280;51963;46.052;14.544;2023-06-22T12:20:51;98265.44;;;39.57;36.89
56182;BME280;51963;46.052;14.544;2023-06-22T12:23:20;98262.34;;;40.47;33.22
56182;BME280;51963;46.052;14.544;2023-06-22T12:25:48;98263.88;;;40.37;33.99
56182;BME280;51963;46.052;14.544;2023-06-22T12:28:18;98263.22;;;40.95;32.15
56182;BME280;51963;46.052;14.544;2023-06-22T12:30:46;98242.44;;;40.19;33.37
56182;BME280;51963;46.052;14.544;2023-06-22T12:33:13;98255.84;;;39.99;34.29
56182;BME280;51963;46.052;14.544;2023-06-22T12:35:42;98252.78;;;40.26;32.33
56182;BME280;51963;46.052;14.544;2023-06-22T12:38:08;98250.31;;;40.07;33.31
56182;BME280;51963;46.052;14.544;2023-06-22T12:40:34;98251.25;;;39.58;33.25
56182;BME280;51963;46.052;14.544;2023-06-22T12:43:03;98240.53;;;39.53;33.66
56182;BME280;51963;46.052;14.544;2023-06-22T12:45:29;98244.16;;;40.68;31.91
56182;BME280;51963;46.052;14.544;2023-06-22T12:47:57;98242.63;;;40.92;32.24
56182;BME280;51963;46.052;14.544;2023-06-22T12:50:25;98247.91;;;39.98;33.66
56182;BME280;51963;46.052;14.544;2023-06-22T12:52:51;98237.25;;;40.00;33.69
56182;BME280;51963;46.052;14.544;2023-06-22T12:55:17;98222.88;;;39.76;33.88
56182;BME280;51963;46.052;14.544;2023-06-22T12:57:42;98233.69;;;40.03;34.49